Time;durP1;ratioP1;P1;durP2;ratioP2;P2;SDS_P1;SDS_P2;PMS_P1;PMS_P2;Temp;Humidity;BMP_temperature;BMP_pressure;BME280_temperature;BME280_humidity;BME280_pressure;Samples;Min_cycle;Max_cycle;Signal;HPM_P1;HPM_P2
2022/10/26 07:14:17;;;;;;;6.40;4.90;;;;;;;;;;6185726;23;20396;-77
2022/10/26 07:16:42;;;;;;;5.90;4.60;;;;;;;;;;6186595;23;20024;-77
2022/10/26 07:19:08;;;;;;;6.47;4.70;;;;;;;;;;6186844;23;20320;-76
2022/10/26 07:21:33;;;;;;;5.15;4.65;;;;;;;;;;6160117;23;20001;-77
2022/10/26 07:23:59;;;;;;;6.05;5.28;;;;;;;;;;6216320;23;20058;-77
2022/10/26 07:26:24;;;;;;;5.30;4.80;;;;;;;;;;6216910;23;20004;-77
2022/10/26 07:28:50;;;;;;;5.70;5.03;;;;;;;;;;6217377;23;20005;-79
2022/10/26 07:31:16;;;;;;;8.32;5.13;;;;;;;;;;6217071;23;20315;-80
2022/10/26 07:33:43;;;;;;;6.60;4.75;;;;;;;;;;6216829;23;20415;-77
2022/10/26 07:36:09;;;;;;;5.57;4.93;;;;;;;;;;6216898;23;20005;-78
2022/10/26 07:38:35;;;;;;;6.03;4.65;;;;;;;;;;6217448;23;20055;-76
2022/10/26 07:41:02;;;;;;;7.32;4.70;;;;;;;;;;6217145;23;20005;-77
2022/10/26 07:43:27;;;;;;;5.00;4.50;;;;;;;;;;6216939;23;20007;-77
2022/10/26 07:45:53;;;;;;;6.00;4.80;;;;;;;;;;6216837;23;20009;-80
2022/10/26 07:48:18;;;;;;;4.45;4.05;;;;;;;;;;6217138;23;20412;-78
2022/10/26 07:50:44;;;;;;;4.68;4.22;;;;;;;;;;6216806;23;20117;-78
2022/10/26 07:53:09;;;;;;;8.05;4.53;;;;;;;;;;6217070;23;20016;-78
2022/10/26 07:55:35;;;;;;;4.72;4.20;;;;;;;;;;6216667;23;20036;-81
2022/10/26 07:58:00;;;;;;;4.28;3.88;;;;;;;;;;6216071;23;20133;-82
2022/10/26 08:00:27;;;;;;;5.85;4.35;;;;;;;;;;6216809;23;20083;-80
2022/10/26 08:02:53;;;;;;;6.28;3.70;;;;;;;;;;6216409;23;20384;-82
2022/10/26 08:05:18;;;;;;;4.80;4.10;;;;;;;;;;6216075;23;20005;-80
2022/10/26 08:07:44;;;;;;;7.00;4.25;;;;;;;;;;6216875;23;20008;-80
2022/10/26 08:10:11;;;;;;;4.20;3.80;;;;;;;;;;6216503;23;20402;-81
2022/10/26 08:12:37;;;;;;;5.63;4.10;;;;;;;;;;6215973;23;20498;-80
2022/10/26 08:15:03;;;;;;;5.28;3.85;;;;;;;;;;6189835;23;20012;-79
2022/10/26 08:17:28;;;;;;;5.55;4.25;;;;;;;;;;6216532;23;20072;-79
2022/10/26 08:19:54;;;;;;;5.55;3.88;;;;;;;;;;6216526;23;20404;-80
2022/10/26 08:22:19;;;;;;;6.63;4.20;;;;;;;;;;6216193;23;20116;-80
2022/10/26 08:24:45;;;;;;;5.07;4.03;;;;;;;;;;6216604;23;20004;-80
2022/10/26 08:27:13;;;;;;;6.18;3.65;;;;;;;;;;6216538;23;19997;-82
2022/10/26 08:29:38;;;;;;;4.80;3.83;;;;;;;;;;6216366;23;20055;-79
2022/10/26 08:32:04;;;;;;;4.72;3.80;;;;;;;;;;6216253;23;20135;-80
2022/10/26 08:34:30;;;;;;;8.57;3.90;;;;;;;;;;6216227;23;20013;-79
2022/10/26 08:36:55;;;;;;;4.40;3.55;;;;;;;;;;6216705;23;20001;-80
2022/10/26 08:39:20;;;;;;;7.65;3.67;;;;;;;;;;6216404;23;20080;-79
2022/10/26 08:41:51;;;;;;;4.97;2.90;;;;;;;;;;6216617;23;20009;-84
2022/10/26 08:44:25;;;;;;;4.55;3.22;;;;;;;;;;6215962;23;20004;-82
2022/10/26 08:46:57;;;;;;;4.80;3.30;;;;;;;;;;6216007;23;20032;-81
2022/10/26 08:49:29;;;;;;;4.13;3.63;;;;;;;;;;6216183;23;20007;-78
2022/10/26 08:52:00;;;;;;;5.07;3.45;;;;;;;;;;6216242;23;20075;-80
2022/10/26 08:54:31;;;;;;;7.43;3.65;;;;;;;;;;6216408;23;20412;-86
2022/10/26 08:57:00;;;;;;;3.72;3.00;;;;;;;;;;6216100;23;20087;-86
2022/10/26 08:59:29;;;;;;;;;;;;;;;;;;6190016;23;20140;-81
2022/10/26 09:01:54;;;;;;;3.72;3.08;;;;;;;;;;6215846;23;19919;-80
2022/10/26 09:04:26;;;;;;;4.32;3.78;;;;;;;;;;6215999;23;20008;-81
2022/10/26 09:07:09;;;;;;;4.22;3.30;;;;;;;;;;6216378;23;20004;-81
2022/10/26 09:09:56;;;;;;;5.68;3.50;;;;;;;;;;6215507;23;20007;-81
2022/10/26 09:12:40;;;;;;;5.47;3.17;;;;;;;;;;6215983;23;20000;-79
2022/10/26 09:15:14;;;;;;;5.90;3.63;;;;;;;;;;6216111;23;20428;-80
2022/10/26 09:18:02;;;;;;;4.70;3.47;;;;;;;;;;6216390;23;20009;-80
2022/10/26 09:20:49;;;;;;;3.65;3.00;;;;;;;;;;6216020;23;20015;-82
2022/10/26 09:23:28;;;;;;;3.00;2.70;;;;;;;;;;6215844;23;20005;-80
2022/10/26 09:25:58;;;;;;;4.00;3.00;;;;;;;;;;6215999;23;20014;-81
2022/10/26 09:28:27;;;;;;;4.32;2.67;;;;;;;;;;6216162;23;20015;-80
2022/10/26 09:30:53;;;;;;;4.47;3.17;;;;;;;;;;6216063;23;20024;-81
2022/10/26 09:33:23;;;;;;;3.47;2.80;;;;;;;;;;6189243;23;20432;-81
2022/10/26 09:35:50;;;;;;;;;;;;;;;;;;6216937;23;20147;-81
2022/10/26 09:38:25;;;;;;;4.35;3.03;;;;;;;;;;6216114;23;19966;-80
2022/10/26 09:41:14;;;;;;;6.03;2.90;;;;;;;;;;6215951;23;20015;-80
2022/10/26 09:43:49;;;;;;;;;;;;;;;;;;6216565;23;20009;-80
2022/10/26 09:46:24;;;;;;;5.15;3.00;;;;;;;;;;6216070;23;19914;-82
2022/10/26 09:48:58;;;;;;;6.65;3.40;;;;;;;;;;6215383;23;20077;-81
2022/10/26 09:51:26;;;;;;;6.82;3.55;;;;;;;;;;6216004;23;20008;-84
2022/10/26 09:53:52;;;;;;;4.65;3.00;;;;;;;;;;6215432;23;20067;-78
2022/10/26 09:56:18;;;;;;;4.78;2.75;;;;;;;;;;6216386;23;20005;-83
2022/10/26 09:58:52;;;;;;;4.57;3.28;;;;;;;;;;6216434;23;20120;-80
2022/10/26 10:01:31;;;;;;;4.85;2.88;;;;;;;;;;6215736;23;20008;-81
2022/10/26 10:04:16;;;;;;;4.10;2.83;;;;;;;;;;6215746;23;20001;-77
2022/10/26 10:06:43;;;;;;;5.57;3.10;;;;;;;;;;6188683;23;20008;-77
2022/10/26 10:09:22;;;;;;;3.28;2.75;;;;;;;;;;6215451;23;20039;-79
2022/10/26 10:12:02;;;;;;;4.50;3.28;;;;;;;;;;6189143;23;20040;-80
2022/10/26 10:14:36;;;;;;;6.28;4.32;;;;;;;;;;6215011;23;20030;-79
2022/10/26 10:17:04;;;;;;;5.15;4.68;;;;;;;;;;6216257;23;20008;-84
2022/10/26 10:19:35;;;;;;;7.70;3.90;;;;;;;;;;6189234;23;20013;-77
2022/10/26 10:22:24;;;;;;;5.35;4.03;;;;;;;;;;6217011;23;20000;-76
2022/10/26 10:24:53;;;;;;;9.63;3.58;;;;;;;;;;6217322;23;20027;-76
2022/10/26 10:27:19;;;;;;;5.22;2.90;;;;;;;;;;6217438;23;20008;-76
2022/10/26 10:29:45;;;;;;;6.22;2.80;;;;;;;;;;6217475;23;20106;-82
2022/10/26 10:32:26;;;;;;;5.32;3.33;;;;;;;;;;6217165;23;20001;-79
2022/10/26 10:34:55;;;;;;;5.72;3.70;;;;;;;;;;6217836;23;20004;-90
2022/10/26 10:37:43;;;;;;;4.15;3.35;;;;;;;;;;6191116;23;20035;-80
2022/10/26 10:40:19;;;;;;;6.35;3.33;;;;;;;;;;6217595;23;20036;-80
2022/10/26 10:42:46;;;;;;;2.90;2.60;;;;;;;;;;6217406;23;20019;-82
2022/10/26 10:45:22;;;;;;;6.03;2.90;;;;;;;;;;6217508;23;20001;-82
2022/10/26 10:48:03;;;;;;;3.78;3.10;;;;;;;;;;6217471;23;20325;-80
2022/10/26 10:50:29;;;;;;;6.65;3.25;;;;;;;;;;6217320;23;20487;-82
2022/10/26 10:53:18;;;;;;;5.57;3.00;;;;;;;;;;6217497;23;20020;-81
2022/10/26 10:56:08;;;;;;;4.50;3.00;;;;;;;;;;6217111;23;20301;-84
2022/10/26 10:59:00;;;;;;;3.63;2.60;;;;;;;;;;6190568;23;20383;-82
2022/10/26 11:01:36;;;;;;;3.10;2.80;;;;;;;;;;6190852;23;20368;-85
2022/10/26 11:04:24;;;;;;;4.25;2.70;;;;;;;;;;6190177;23;20332;-87
2022/10/26 11:06:52;;;;;;;3.45;2.88;;;;;;;;;;6217072;23;20000;-77
2022/10/26 11:09:24;;;;;;;4.70;2.90;;;;;;;;;;6217669;23;20000;-76
2022/10/26 11:11:54;;;;;;;3.33;2.80;;;;;;;;;;6216837;23;20351;-74
2022/10/26 11:14:29;;;;;;;3.85;2.67;;;;;;;;;;6216953;23;20024;-75
2022/10/26 11:17:03;;;;;;;4.80;3.15;;;;;;;;;;6217143;23;20007;-76
2022/10/26 11:19:57;;;;;;;3.13;2.30;;;;;;;;;;6219199;23;20008;-75
2022/10/26 11:22:28;;;;;;;2.80;2.50;;;;;;;;;;6163214;23;20083;-75
2022/10/26 11:25:06;;;;;;;5.25;3.40;;;;;;;;;;6217205;23;20095;-76
2022/10/26 11:27:44;;;;;;;3.90;3.33;;;;;;;;;;6216813;23;20007;-76
2022/10/26 11:30:21;;;;;;;4.03;2.70;;;;;;;;;;6215723;23;20389;-74
2022/10/26 11:32:52;;;;;;;4.25;2.90;;;;;;;;;;6216216;23;20005;-75
2022/10/26 11:35:20;;;;;;;6.70;3.17;;;;;;;;;;6190145;23;20344;-76
2022/10/26 11:38:14;;;;;;;3.17;2.88;;;;;;;;;;6217152;23;20016;-75
2022/10/26 11:41:14;;;;;;;3.83;2.80;;;;;;;;;;6216720;23;20327;-78
2022/10/26 11:43:42;;;;;;;3.30;2.65;;;;;;;;;;6190666;23;20028;-78
2022/10/26 11:46:27;;;;;;;5.25;3.20;;;;;;;;;;6216838;23;20004;-77
2022/10/26 11:49:19;;;;;;;3.67;2.50;;;;;;;;;;6216652;23;20005;-76
2022/10/26 11:51:58;;;;;;;3.72;3.20;;;;;;;;;;6216732;23;20420;-76
2022/10/26 11:54:30;;;;;;;4.22;3.63;;;;;;;;;;6216799;23;20104;-76
2022/10/26 11:56:57;;;;;;;4.20;3.00;;;;;;;;;;6216434;23;20004;-76
2022/10/26 11:59:25;;;;;;;3.42;3.13;;;;;;;;;;6216403;23;20005;-75
2022/10/26 12:01:59;;;;;;;4.13;3.00;;;;;;;;;;6216663;23;20072;-77
2022/10/26 12:04:29;;;;;;;4.93;3.15;;;;;;;;;;6189762;23;20016;-76
2022/10/26 12:06:57;;;;;;;3.33;2.78;;;;;;;;;;6189787;23;20331;-76
2022/10/26 12:09:28;;;;;;;5.32;2.90;;;;;;;;;;6216596;23;20083;-75
2022/10/26 12:12:06;;;;;;;5.97;2.95;;;;;;;;;;6216499;23;20059;-75
2022/10/26 12:14:40;;;;;;;3.45;2.70;;;;;;;;;;6216132;23;20016;-76
2022/10/26 12:17:13;;;;;;;8.13;3.10;;;;;;;;;;6216536;23;20013;-76
2022/10/26 12:19:48;;;;;;;3.30;2.53;;;;;;;;;;6189862;23;20356;-76
2022/10/26 12:22:16;;;;;;;6.13;3.03;;;;;;;;;;6216355;23;20408;-77
2022/10/26 12:24:44;;;;;;;4.57;3.13;;;;;;;;;;6216348;23;20075;-76
2022/10/26 12:27:39;;;;;;;7.43;3.20;;;;;;;;;;6190562;23;20009;-74
2022/10/26 12:30:11;;;;;;;5.47;3.53;;;;;;;;;;6189676;23;20031;-76
2022/10/26 12:32:36;;;;;;;3.58;2.92;;;;;;;;;;6216440;23;19996;-75
2022/10/26 12:35:29;;;;;;;4.80;3.00;;;;;;;;;;6215982;23;20008;-76
2022/10/26 12:37:56;;;;;;;3.60;2.67;;;;;;;;;;6216428;23;20075;-75
2022/10/26 12:40:33;;;;;;;3.08;2.78;;;;;;;;;;6216384;23;20028;-75
2022/10/26 12:43:14;;;;;;;3.85;2.50;;;;;;;;;;6216650;23;20047;-75
2022/10/26 12:46:05;;;;;;;3.08;2.78;;;;;;;;;;6189536;23;20089;-76
2022/10/26 12:48:42;;;;;;;3.58;2.38;;;;;;;;;;6215888;23;20047;-77
2022/10/26 12:51:33;;;;;;;4.93;2.55;;;;;;;;;;6211448;23;20047;-76
2022/10/26 12:54:02;;;;;;;6.65;3.88;;;;;;;;;;6208088;23;20335;-73
2022/10/26 12:56:53;;;;;;;7.33;3.27;;;;;;;;;;6213845;23;20096;-75
2022/10/26 12:59:42;;;;;;;4.88;2.83;;;;;;;;;;6215958;23;20005;-75
2022/10/26 13:02:44;;;;;;;5.55;3.08;;;;;;;;;;6215721;23;20083;-78
2022/10/26 13:05:32;;;;;;;5.25;3.08;;;;;;;;;;6215567;23;20087;-78
2022/10/26 13:08:07;;;;;;;4.40;2.95;;;;;;;;;;6215916;23;20004;-78
2022/10/26 13:10:33;;;;;;;3.20;2.72;;;;;;;;;;6215674;23;20012;-78
2022/10/26 13:13:01;;;;;;;3.97;2.90;;;;;;;;;;6216127;23;20013;-76
2022/10/26 13:15:29;;;;;;;4.20;2.67;;;;;;;;;;6216027;23;20047;-78
2022/10/26 13:18:06;;;;;;;3.20;2.78;;;;;;;;;;6215828;23;20001;-77
2022/10/26 13:20:34;;;;;;;4.50;2.75;;;;;;;;;;6216009;23;20004;-78
2022/10/26 13:23:02;;;;;;;3.40;2.78;;;;;;;;;;6215953;23;20039;-79
2022/10/26 13:25:29;;;;;;;4.05;3.20;;;;;;;;;;6216076;23;20435;-78
2022/10/26 13:27:57;;;;;;;3.65;2.90;;;;;;;;;;6216301;23;20424;-78
2022/10/26 13:30:47;;;;;;;6.45;3.00;;;;;;;;;;6216074;23;20005;-78
2022/10/26 13:33:20;;;;;;;3.25;2.90;;;;;;;;;;6196241;23;20384;-77
2022/10/26 13:35:47;;;;;;;4.43;2.95;;;;;;;;;;6216128;23;20013;-77
2022/10/26 13:38:21;;;;;;;5.75;3.00;;;;;;;;;;6216194;23;20009;-77
2022/10/26 13:40:47;;;;;;;4.18;2.80;;;;;;;;;;6216578;23;20051;-77
2022/10/26 13:43:21;;;;;;;8.15;2.80;;;;;;;;;;6215659;23;20008;-77
2022/10/26 13:46:00;;;;;;;3.38;2.95;;;;;;;;;;6215794;23;20495;-77
2022/10/26 13:48:38;;;;;;;5.03;3.33;;;;;;;;;;6216064;23;20068;-78
2022/10/26 13:51:12;;;;;;;4.43;2.95;;;;;;;;;;6216040;23;20004;-77
2022/10/26 13:53:56;;;;;;;3.63;3.08;;;;;;;;;;6216642;23;20056;-87
2022/10/26 13:56:36;;;;;;;3.97;2.80;;;;;;;;;;6219597;23;19997;-84
2022/10/26 13:59:05;;;;;;;6.47;3.38;;;;;;;;;;6194768;23;20015;-84
2022/10/26 14:01:31;;;;;;;7.13;3.30;;;;;;;;;;6168753;23;20011;-82
2022/10/26 14:03:57;;;;;;;3.47;3.17;;;;;;;;;;6220916;23;20495;-86
2022/10/26 14:06:35;;;;;;;4.28;3.30;;;;;;;;;;6192650;23;20028;-88
2022/10/26 14:09:10;;;;;;;5.15;2.97;;;;;;;;;;6194532;23;20039;-95
2022/10/26 14:11:45;;;;;;;3.80;3.10;;;;;;;;;;6219487;23;20071;-82
2022/10/26 14:14:17;;;;;;;3.63;2.85;;;;;;;;;;6193148;23;20451;-87
2022/10/26 14:16:45;;;;;;;3.33;3.03;;;;;;;;;;6193714;23;20032;-88
2022/10/26 14:19:24;;;;;;;3.72;3.30;;;;;;;;;;6195333;23;20005;-86
2022/10/26 14:21:50;;;;;;;3.67;3.00;;;;;;;;;;6218669;23;20008;-86
2022/10/26 14:24:26;;;;;;;5.53;3.03;;;;;;;;;;6218150;23;20043;-83
2022/10/26 14:26:51;;;;;;;4.30;3.20;;;;;;;;;;6218215;23;20324;-85
2022/10/26 14:29:23;;;;;;;8.52;3.20;;;;;;;;;;6222037;23;20000;-83
2022/10/26 14:31:49;;;;;;;4.13;3.13;;;;;;;;;;6221483;23;20079;-84
2022/10/26 14:34:16;;;;;;;3.92;3.50;;;;;;;;;;6222235;23;20000;-85
2022/10/26 14:36:51;;;;;;;4.88;3.42;;;;;;;;;;6221945;23;20001;-83
2022/10/26 14:39:37;;;;;;;6.38;3.35;;;;;;;;;;6221985;23;20020;-84
2022/10/26 14:42:14;;;;;;;4.15;3.17;;;;;;;;;;6220811;23;20005;-84
2022/10/26 14:44:40;;;;;;;4.38;3.10;;;;;;;;;;6220921;23;20404;-86
2022/10/26 14:47:30;;;;;;;5.00;2.97;;;;;;;;;;6219991;23;20027;-87
2022/10/26 14:49:57;;;;;;;5.43;3.45;;;;;;;;;;6218903;23;20010;-86
2022/10/26 14:52:30;;;;;;;4.85;3.50;;;;;;;;;;6217747;23;20003;-90
2022/10/26 14:55:02;;;;;;;4.00;3.35;;;;;;;;;;6190394;23;20004;-90
2022/10/26 14:57:31;;;;;;;4.13;3.38;;;;;;;;;;6217168;23;20421;-87
2022/10/26 15:00:03;;;;;;;8.43;4.07;;;;;;;;;;6217662;23;20000;-86
2022/10/26 15:02:29;;;;;;;6.60;3.95;;;;;;;;;;6191645;23;20011;-90
2022/10/26 15:05:16;;;;;;;7.22;3.35;;;;;;;;;;6220611;23;20005;-83
2022/10/26 15:07:43;;;;;;;6.55;3.55;;;;;;;;;;6221127;23;20005;-83
2022/10/26 15:10:44;;;;;;;7.50;4.35;;;;;;;;;;6220235;23;20031;-85
2022/10/26 15:13:20;;;;;;;6.78;4.13;;;;;;;;;;6194484;23;20020;-83
2022/10/26 15:15:47;;;;;;;6.72;4.53;;;;;;;;;;6218895;23;20503;-83
2022/10/26 15:18:34;;;;;;;5.32;4.05;;;;;;;;;;6220523;23;20001;-84
2022/10/26 15:20:59;;;;;;;9.57;4.20;;;;;;;;;;6219620;23;20016;-85
2022/10/26 15:23:27;;;;;;;7.63;3.92;;;;;;;;;;6217351;23;20004;-89
2022/10/26 15:26:01;;;;;;;8.13;3.97;;;;;;;;;;6220981;23;20035;-83
2022/10/26 15:28:35;;;;;;;7.45;4.25;;;;;;;;;;6219289;23;20001;-85
2022/10/26 15:31:28;;;;;;;10.27;4.28;;;;;;;;;;6221397;23;20083;-83
2022/10/26 15:33:53;;;;;;;6.55;3.60;;;;;;;;;;6221430;23;20028;-82
2022/10/26 15:36:20;;;;;;;8.05;4.15;;;;;;;;;;6221239;23;20027;-82
2022/10/26 15:38:50;;;;;;;8.35;4.40;;;;;;;;;;6220796;23;20001;-83
2022/10/26 15:41:32;;;;;;;6.28;4.53;;;;;;;;;;6219413;23;20008;-85
2022/10/26 15:44:01;;;;;;;7.70;4.00;;;;;;;;;;6217029;23;20001;-82
2022/10/26 15:46:31;;;;;;;6.00;4.25;;;;;;;;;;6217471;23;20009;-89
2022/10/26 15:48:59;;;;;;;6.82;3.97;;;;;;;;;;6218152;23;20005;-84
2022/10/26 15:51:25;;;;;;;14.20;8.57;;;;;;;;;;6217235;23;20063;-90
2022/10/26 15:53:51;;;;;;;10.35;7.30;;;;;;;;;;6217276;23;20004;-87
2022/10/26 15:56:24;;;;;;;6.45;4.30;;;;;;;;;;6219187;23;20066;-87
2022/10/26 15:58:50;;;;;;;7.70;4.65;;;;;;;;;;6218294;23;20008;-88
2022/10/26 16:01:22;;;;;;;7.97;5.53;;;;;;;;;;6191360;23;20036;-88
2022/10/26 16:03:48;;;;;;;8.23;4.45;;;;;;;;;;6216755;23;20005;-90
2022/10/26 16:06:27;;;;;;;7.00;4.10;;;;;;;;;;6217043;23;20456;-91
2022/10/26 16:08:55;;;;;;;5.07;3.88;;;;;;;;;;6217150;23;20001;-84
2022/10/26 16:11:21;;;;;;;7.82;4.40;;;;;;;;;;6217617;23;20009;-85
2022/10/26 16:13:47;;;;;;;9.15;4.43;;;;;;;;;;6217512;23;20026;-88
2022/10/26 16:16:14;;;;;;;5.25;4.35;;;;;;;;;;6217165;23;20087;-91
2022/10/26 16:18:40;;;;;;;6.43;4.10;;;;;;;;;;6216622;23;20001;-83
2022/10/26 16:21:05;;;;;;;7.57;4.43;;;;;;;;;;6217026;23;20104;-82
2022/10/26 16:23:31;;;;;;;6.75;4.05;;;;;;;;;;6216849;23;20004;-84
2022/10/26 16:25:56;;;;;;;6.60;4.15;;;;;;;;;;6216814;23;20469;-90
2022/10/26 16:28:22;;;;;;;8.57;4.20;;;;;;;;;;6216689;23;20336;-88
2022/10/26 16:30:47;;;;;;;6.03;4.50;;;;;;;;;;6217177;23;20080;-91
2022/10/26 16:33:13;;;;;;;6.28;5.05;;;;;;;;;;6216897;23;20339;-82
2022/10/26 16:35:38;;;;;;;6.93;5.10;;;;;;;;;;6217197;23;20379;-91
2022/10/26 16:38:04;;;;;;;7.30;4.72;;;;;;;;;;6216916;23;20005;-82
2022/10/26 16:40:29;;;;;;;7.32;4.97;;;;;;;;;;6217269;23;20031;-85
2022/10/26 16:42:54;;;;;;;7.22;4.90;;;;;;;;;;6217119;23;20324;-92
2022/10/26 16:45:20;;;;;;;8.35;4.70;;;;;;;;;;6217498;23;20011;-82
2022/10/26 16:47:45;;;;;;;8.82;4.47;;;;;;;;;;6217314;23;20005;-91
2022/10/26 16:50:12;;;;;;;6.40;4.78;;;;;;;;;;6217099;23;20011;-82
2022/10/26 16:52:38;;;;;;;6.22;5.00;;;;;;;;;;6216843;23;20313;-83
2022/10/26 16:55:05;;;;;;;11.23;4.60;;;;;;;;;;6217074;23;20009;-85
2022/10/26 16:57:31;;;;;;;8.80;4.95;;;;;;;;;;6216513;23;19997;-88
2022/10/26 16:59:57;;;;;;;7.03;4.93;;;;;;;;;;6217078;23;20011;-81
2022/10/26 17:02:23;;;;;;;6.28;4.68;;;;;;;;;;6216980;23;20005;-85
2022/10/26 17:04:48;;;;;;;9.23;5.35;;;;;;;;;;6217293;23;20424;-81
2022/10/26 17:07:14;;;;;;;8.30;4.75;;;;;;;;;;6217134;23;20035;-88
2022/10/26 17:09:39;;;;;;;6.57;4.40;;;;;;;;;;6191157;23;20420;-83
2022/10/26 17:12:05;;;;;;;8.90;4.50;;;;;;;;;;6190642;23;20036;-83
2022/10/26 17:14:31;;;;;;;9.15;5.47;;;;;;;;;;6216386;23;20027;-88
2022/10/26 17:16:58;;;;;;;7.15;5.07;;;;;;;;;;6216640;23;20139;-84
2022/10/26 17:19:25;;;;;;;10.75;4.95;;;;;;;;;;6216531;23;20005;-85
2022/10/26 17:21:50;;;;;;;7.10;5.50;;;;;;;;;;6216824;23;20432;-88
2022/10/26 17:24:17;;;;;;;9.00;5.43;;;;;;;;;;6216321;23;20011;-89
2022/10/26 17:26:43;;;;;;;7.80;5.43;;;;;;;;;;6217633;23;20420;-87
2022/10/26 17:29:11;;;;;;;8.95;5.20;;;;;;;;;;6190055;23;20004;-87
2022/10/26 17:31:36;;;;;;;7.22;4.80;;;;;;;;;;6189454;23;20001;-85
2022/10/26 17:34:01;;;;;;;9.57;5.60;;;;;;;;;;6215998;23;20059;-86
2022/10/26 17:36:27;;;;;;;6.38;5.25;;;;;;;;;;6215147;23;20005;-87
2022/10/26 17:38:54;;;;;;;8.55;5.05;;;;;;;;;;6215815;23;20009;-90
2022/10/26 17:41:21;;;;;;;8.27;5.10;;;;;;;;;;6216312;23;20001;-91
2022/10/26 17:43:47;;;;;;;7.50;5.07;;;;;;;;;;6216150;23;20417;-79
2022/10/26 17:46:15;;;;;;;13.65;5.25;;;;;;;;;;6215941;23;20004;-76
2022/10/26 17:48:41;;;;;;;8.50;4.90;;;;;;;;;;6215829;23;20005;-79
2022/10/26 17:51:10;;;;;;;9.73;5.00;;;;;;;;;;6215840;23;20004;-77
2022/10/26 17:53:36;;;;;;;9.48;5.25;;;;;;;;;;6215849;23;20375;-78
2022/10/26 17:56:07;;;;;;;8.35;5.18;;;;;;;;;;6215695;23;20004;-77
2022/10/26 17:58:33;;;;;;;11.55;6.40;;;;;;;;;;6216016;23;20000;-80
2022/10/26 18:01:04;;;;;;;7.07;5.22;;;;;;;;;;6215540;23;20058;-80
2022/10/26 18:03:29;;;;;;;9.05;5.50;;;;;;;;;;6216102;23;20036;-78
2022/10/26 18:05:55;;;;;;;8.18;5.65;;;;;;;;;;6215638;23;20413;-79
2022/10/26 18:08:21;;;;;;;11.43;6.22;;;;;;;;;;6215952;23;20015;-87
2022/10/26 18:10:51;;;;;;;9.77;5.38;;;;;;;;;;6215935;23;20412;-90
2022/10/26 18:13:16;;;;;;;7.40;5.68;;;;;;;;;;6215754;23;20100;-85
2022/10/26 18:15:42;;;;;;;9.73;6.38;;;;;;;;;;6215616;23;20051;-85
2022/10/26 18:18:08;;;;;;;13.60;6.00;;;;;;;;;;6188738;23;20091;-85
2022/10/26 18:20:34;;;;;;;7.50;5.80;;;;;;;;;;6215669;23;20008;-87
2022/10/26 18:23:00;;;;;;;8.90;5.80;;;;;;;;;;6215452;23;20063;-88
2022/10/26 18:25:26;;;;;;;10.05;5.88;;;;;;;;;;6215589;23;20004;-83
2022/10/26 18:27:51;;;;;;;8.52;5.38;;;;;;;;;;6215944;23;20004;-84
2022/10/26 18:30:17;;;;;;;5.68;4.72;;;;;;;;;;6215569;23;20420;-86
2022/10/26 18:32:42;;;;;;;8.50;4.88;;;;;;;;;;6215560;23;20007;-87
2022/10/26 18:35:08;;;;;;;6.57;4.70;;;;;;;;;;6215454;23;20390;-85
2022/10/26 18:37:33;;;;;;;9.02;5.18;;;;;;;;;;6216021;23;20008;-86
2022/10/26 18:39:58;;;;;;;11.25;6.40;;;;;;;;;;6189259;23;20004;-87
2022/10/26 18:42:24;;;;;;;7.50;5.88;;;;;;;;;;6216928;23;20011;-85
2022/10/26 18:44:49;;;;;;;8.75;6.10;;;;;;;;;;6217687;23;20388;-86
2022/10/26 18:47:15;;;;;;;10.07;6.70;;;;;;;;;;6217931;23;20016;-85
2022/10/26 18:49:40;;;;;;;10.07;5.93;;;;;;;;;;6217581;23;20439;-89
2022/10/26 18:52:09;;;;;;;9.80;5.55;;;;;;;;;;6217747;23;20031;-88
2022/10/26 18:54:34;;;;;;;10.70;6.50;;;;;;;;;;6216964;23;20005;-83
2022/10/26 18:56:59;;;;;;;8.50;6.63;;;;;;;;;;6216879;23;20430;-84
2022/10/26 18:59:25;;;;;;;10.15;6.30;;;;;;;;;;6217109;23;20059;-84
2022/10/26 19:01:51;;;;;;;11.18;6.65;;;;;;;;;;6216683;23;20012;-82
2022/10/26 19:04:17;;;;;;;8.63;6.40;;;;;;;;;;6216998;23;20008;-84
2022/10/26 19:06:46;;;;;;;8.93;5.82;;;;;;;;;;6217360;23;19996;-84
2022/10/26 19:09:15;;;;;;;9.27;5.68;;;;;;;;;;6217388;23;20011;-83
2022/10/26 19:11:41;;;;;;;8.50;6.05;;;;;;;;;;6216682;23;20483;-84
2022/10/26 19:14:07;;;;;;;10.25;6.13;;;;;;;;;;6216829;23;20017;-82
2022/10/26 19:16:34;;;;;;;8.40;6.00;;;;;;;;;;6217074;23;20000;-82
2022/10/26 19:19:00;;;;;;;8.90;5.80;;;;;;;;;;6216846;23;20001;-82
2022/10/26 19:21:28;;;;;;;8.30;5.40;;;;;;;;;;6217137;23;20000;-83
2022/10/26 19:23:55;;;;;;;6.05;4.53;;;;;;;;;;6217173;23;20029;-83
2022/10/26 19:26:30;;;;;;;8.52;5.40;;;;;;;;;;6217151;23;20032;-85
2022/10/26 19:28:58;;;;;;;7.43;5.32;;;;;;;;;;6217106;23;20001;-85
2022/10/26 19:31:25;;;;;;;7.38;5.30;;;;;;;;;;6216776;23;20011;-85
2022/10/26 19:33:50;;;;;;;10.00;5.70;;;;;;;;;;6216812;23;20024;-84
2022/10/26 19:36:16;;;;;;;11.00;6.00;;;;;;;;;;6217148;23;20439;-85
2022/10/26 19:38:41;;;;;;;7.07;5.50;;;;;;;;;;6217216;23;20008;-85
2022/10/26 19:41:10;;;;;;;6.88;5.85;;;;;;;;;;6217047;23;20008;-84
2022/10/26 19:43:36;;;;;;;8.52;5.22;;;;;;;;;;6216595;23;20001;-84
2022/10/26 19:46:16;;;;;;;8.38;5.30;;;;;;;;;;6216758;23;20004;-84
2022/10/26 19:48:50;;;;;;;8.45;5.80;;;;;;;;;;6216873;23;20083;-85
2022/10/26 19:51:17;;;;;;;7.97;5.82;;;;;;;;;;6216928;23;20009;-85
2022/10/26 19:53:42;;;;;;;10.90;5.85;;;;;;;;;;6189584;23;20008;-85
2022/10/26 19:56:12;;;;;;;8.20;5.38;;;;;;;;;;6216798;23;20014;-84
2022/10/26 19:58:38;;;;;;;8.18;5.40;;;;;;;;;;6216702;23;20005;-84
2022/10/26 20:01:05;;;;;;;6.25;4.25;;;;;;;;;;6216809;23;20340;-84
2022/10/26 20:03:30;;;;;;;7.43;4.90;;;;;;;;;;6216489;23;20008;-84
2022/10/26 20:05:57;;;;;;;9.93;5.47;;;;;;;;;;6216940;23;20001;-84
2022/10/26 20:08:23;;;;;;;8.32;5.32;;;;;;;;;;6216821;23;20030;-84
2022/10/26 20:10:52;;;;;;;7.65;5.03;;;;;;;;;;6216715;23;20404;-84
2022/10/26 20:13:17;;;;;;;8.75;5.43;;;;;;;;;;6216595;23;20039;-84
2022/10/26 20:15:43;;;;;;;6.82;4.90;;;;;;;;;;6216422;23;20009;-84
2022/10/26 20:18:10;;;;;;;7.78;5.35;;;;;;;;;;6216800;23;20059;-84
2022/10/26 20:20:36;;;;;;;7.70;5.40;;;;;;;;;;6216896;23;20000;-84
2022/10/26 20:23:06;;;;;;;7.47;5.63;;;;;;;;;;6216672;23;20083;-84
2022/10/26 20:25:38;;;;;;;;;;;;;;;;;;6216877;23;20027;-84
2022/10/26 20:28:05;;;;;;;9.88;5.03;;;;;;;;;;6216518;23;19954;-84
2022/10/26 20:30:31;;;;;;;7.75;5.57;;;;;;;;;;6216727;23;20028;-84
2022/10/26 20:32:58;;;;;;;11.80;6.07;;;;;;;;;;6189692;23;20324;-84
2022/10/26 20:35:24;;;;;;;7.00;5.55;;;;;;;;;;6216508;23;20033;-84
2022/10/26 20:37:50;;;;;;;6.60;5.25;;;;;;;;;;6216750;23;20432;-84
2022/10/26 20:40:16;;;;;;;10.10;5.85;;;;;;;;;;6216479;23;20004;-83
2022/10/26 20:42:42;;;;;;;8.20;5.53;;;;;;;;;;6216402;23;20004;-84
2022/10/26 20:45:14;;;;;;;9.50;5.88;;;;;;;;;;6189912;23;20028;-84
2022/10/26 20:47:39;;;;;;;8.63;5.60;;;;;;;;;;6216739;23;20361;-84
2022/10/26 20:50:06;;;;;;;8.90;6.07;;;;;;;;;;6216477;23;20004;-84
2022/10/26 20:52:50;;;;;;;10.55;6.57;;;;;;;;;;6216026;23;20032;-82
2022/10/26 20:55:43;;;;;;;9.52;6.28;;;;;;;;;;6216742;23;20063;-81
2022/10/26 20:58:37;;;;;;;7.43;5.88;;;;;;;;;;6216387;23;20305;-84
2022/10/26 21:01:07;;;;;;;7.53;6.20;;;;;;;;;;6216186;23;20016;-83
2022/10/26 21:03:33;;;;;;;8.07;5.15;;;;;;;;;;6189468;23;20412;-83
2022/10/26 21:05:58;;;;;;;8.13;5.82;;;;;;;;;;6216268;23;20030;-84
2022/10/26 21:08:23;;;;;;;10.70;5.55;;;;;;;;;;6216392;23;20083;-84
2022/10/26 21:10:50;;;;;;;7.07;5.40;;;;;;;;;;6216186;23;20084;-83
2022/10/26 21:13:16;;;;;;;6.88;5.13;;;;;;;;;;6216074;23;20012;-84
2022/10/26 21:15:41;;;;;;;7.05;5.03;;;;;;;;;;6216168;23;20016;-84
2022/10/26 21:18:07;;;;;;;6.78;5.15;;;;;;;;;;6216075;23;20417;-84
2022/10/26 21:20:32;;;;;;;9.50;6.13;;;;;;;;;;6216434;23;20000;-83
2022/10/26 21:22:57;;;;;;;10.82;6.60;;;;;;;;;;6216131;23;20001;-83
2022/10/26 21:25:23;;;;;;;10.13;6.05;;;;;;;;;;6216257;23;20005;-84
2022/10/26 21:27:54;;;;;;;9.25;6.55;;;;;;;;;;6216081;23;20004;-84
2022/10/26 21:30:20;;;;;;;8.02;5.80;;;;;;;;;;6216569;23;20024;-83
2022/10/26 21:32:45;;;;;;;7.35;5.65;;;;;;;;;;6216184;23;20479;-84
2022/10/26 21:35:10;;;;;;;7.65;5.35;;;;;;;;;;6216025;23;20005;-84
2022/10/26 21:37:36;;;;;;;8.32;5.63;;;;;;;;;;6216030;23;20000;-83
2022/10/26 21:40:02;;;;;;;6.88;5.40;;;;;;;;;;6216241;23;20354;-83
2022/10/26 21:42:27;;;;;;;8.13;5.55;;;;;;;;;;6216014;23;20331;-84
2022/10/26 21:44:52;;;;;;;10.38;6.00;;;;;;;;;;6215953;23;20004;-83
2022/10/26 21:47:18;;;;;;;13.23;7.13;;;;;;;;;;6216357;23;19997;-85
2022/10/26 21:49:43;;;;;;;8.50;5.97;;;;;;;;;;6189567;23;20480;-85
